Time;durP1;ratioP1;P1;durP2;ratioP2;P2;SDS_P1;SDS_P2;PMS_P1;PMS_P2;Temp;Humidity;BMP_temperature;BMP_pressure;BME280_temperature;BME280_humidity;BME280_pressure;Samples;Min_cycle;Max_cycle;Signal;HPM_P1;HPM_P2
2023/08/31 00:01:49;;;;;;;5.07;3.67;;;17.20;99.90;;;;;;4980821;28;20185;-72
2023/08/31 00:04:14;;;;;;;5.90;3.27;;;17.20;99.90;;;;;;4981925;28;20428;-71
2023/08/31 00:06:45;;;;;;;3.63;2.70;;;17.30;99.90;;;;;;4979524;28;20297;-71
2023/08/31 00:09:11;;;;;;;4.07;2.70;;;17.30;99.90;;;;;;4982118;28;20561;-72
2023/08/31 00:11:37;;;;;;;7.27;2.90;;;17.30;99.90;;;;;;4976121;28;20486;-71
2023/08/31 00:14:03;;;;;;;3.57;3.13;;;17.30;99.90;;;;;;4981654;28;21024;-71
2023/08/31 00:16:29;;;;;;;3.57;2.90;;;17.20;99.90;;;;;;4979430;28;20229;-71
2023/08/31 00:18:56;;;;;;;5.00;3.63;;;17.20;99.90;;;;;;4981881;28;20543;-71
2023/08/31 00:21:22;;;;;;;4.13;2.87;;;17.20;99.90;;;;;;4983528;28;20449;-71
2023/08/31 00:23:48;;;;;;;4.40;3.30;;;17.10;99.90;;;;;;4985285;28;20437;-71
2023/08/31 00:26:14;;;;;;;6.60;3.50;;;17.10;99.90;;;;;;4981583;28;20468;-71
2023/08/31 00:28:42;;;;;;;3.97;3.30;;;17.10;99.90;;;;;;4982504;28;20543;-72
2023/08/31 00:31:08;;;;;;;4.43;3.33;;;17.10;99.90;;;;;;4980008;28;20441;-72
2023/08/31 00:33:34;;;;;;;5.23;3.23;;;17.00;99.90;;;;;;4981490;28;20529;-71
2023/08/31 00:36:03;;;;;;;6.13;3.20;;;17.00;99.90;;;;;;4983440;28;20571;-71
2023/08/31 00:38:30;;;;;;;4.80;2.97;;;17.00;99.90;;;;;;4984365;28;20464;-70
2023/08/31 00:40:56;;;;;;;7.77;3.33;;;17.00;99.90;;;;;;4980559;28;20444;-71
2023/08/31 00:43:25;;;;;;;6.90;3.20;;;17.10;99.90;;;;;;4986323;28;20424;-71
2023/08/31 00:45:57;;;;;;;4.30;3.60;;;17.00;99.90;;;;;;4984005;28;20221;-71
2023/08/31 00:48:23;;;;;;;4.43;4.00;;;16.80;99.90;;;;;;4985325;28;20468;-71
2023/08/31 00:50:50;;;;;;;5.10;3.47;;;16.90;99.90;;;;;;4988603;28;20425;-71
2023/08/31 00:53:16;;;;;;;3.97;3.10;;;16.90;99.90;;;;;;4985300;28;20453;-71
2023/08/31 00:55:47;;;;;;;3.87;3.43;;;16.90;99.90;;;;;;4979847;28;20447;-71
2023/08/31 00:58:13;;;;;;;7.13;3.63;;;16.80;99.90;;;;;;4977966;28;20971;-71
2023/08/31 01:00:57;;;;;;;4.60;3.10;;;16.80;99.90;;;;;;4981290;28;20435;-71
2023/08/31 01:03:34;;;;;;;3.83;3.10;;;16.80;99.90;;;;;;4984844;28;20506;-70
2023/08/31 01:06:15;;;;;;;4.10;3.50;;;16.80;99.90;;;;;;4976071;28;20473;-70
2023/08/31 01:08:53;;;;;;;5.17;3.27;;;16.70;99.90;;;;;;4982905;28;20469;-71
2023/08/31 01:11:31;;;;;;;5.97;3.50;;;16.70;99.90;;;;;;4983964;28;20421;-72
2023/08/31 01:14:05;;;;;;;4.47;3.40;;;16.60;99.90;;;;;;4977407;28;20439;-71
2023/08/31 01:16:33;;;;;;;5.20;3.10;;;16.50;99.90;;;;;;4983897;28;20436;-72
2023/08/31 01:19:00;;;;;;;12.17;3.87;;;16.50;99.90;;;;;;4983971;28;20488;-71
2023/08/31 01:21:34;;;;;;;5.43;3.40;;;16.60;99.90;;;;;;4980982;28;20435;-72
2023/08/31 01:24:01;;;;;;;4.53;3.20;;;16.60;99.90;;;;;;4979425;28;20440;-71
2023/08/31 01:26:27;;;;;;;4.60;3.30;;;16.50;99.90;;;;;;4979254;28;20476;-71
2023/08/31 01:28:55;;;;;;;6.43;3.53;;;16.50;99.90;;;;;;4977075;28;20476;-71
2023/08/31 01:31:21;;;;;;;3.83;3.37;;;16.50;99.90;;;;;;4980093;28;20838;-71
2023/08/31 01:33:48;;;;;;;4.57;3.30;;;16.50;99.90;;;;;;4979960;28;20854;-73
2023/08/31 01:36:29;;;;;;;4.07;3.20;;;16.50;99.90;;;;;;4978125;28;20822;-72
2023/08/31 01:39:03;;;;;;;5.00;3.50;;;16.50;99.90;;;;;;4983539;28;20510;-71
2023/08/31 01:41:31;;;;;;;8.40;3.73;;;16.50;99.90;;;;;;4984306;28;20445;-71
2023/08/31 01:43:58;;;;;;;6.50;3.40;;;16.40;99.90;;;;;;4983119;28;20986;-72
2023/08/31 01:46:24;;;;;;;6.90;3.07;;;16.40;99.90;;;;;;4984687;28;20484;-72
2023/08/31 01:48:49;;;;;;;9.80;3.70;;;16.40;99.90;;;;;;4983707;28;20432;-72
2023/08/31 01:51:17;;;;;;;4.80;3.30;;;16.40;99.90;;;;;;4978933;28;20718;-72
2023/08/31 01:53:44;;;;;;;5.37;3.97;;;16.40;99.90;;;;;;4983180;28;20715;-71
2023/08/31 01:56:10;;;;;;;5.90;3.70;;;16.40;99.90;;;;;;4981598;28;20460;-71
2023/08/31 01:58:35;;;;;;;4.60;3.47;;;16.40;99.90;;;;;;4983099;28;20465;-71
2023/08/31 02:01:01;;;;;;;5.07;3.80;;;16.40;99.90;;;;;;4981444;28;20280;-71
2023/08/31 02:03:27;;;;;;;6.40;4.00;;;16.40;99.90;;;;;;4983190;28;20280;-71
2023/08/31 02:05:52;;;;;;;5.00;4.00;;;16.40;99.90;;;;;;4977359;28;20264;-72
2023/08/31 02:08:18;;;;;;;5.97;4.10;;;16.40;99.90;;;;;;4974670;28;20214;-71
2023/08/31 02:10:45;;;;;;;4.70;3.90;;;16.40;99.90;;;;;;4981341;28;20177;-72
2023/08/31 02:13:13;;;;;;;4.97;3.30;;;16.40;99.90;;;;;;4978865;28;20670;-72
2023/08/31 02:15:39;;;;;;;5.37;3.63;;;16.50;99.90;;;;;;4978109;28;20612;-72
2023/08/31 02:18:05;;;;;;;5.80;3.87;;;16.50;99.90;;;;;;4982487;28;20489;-72
2023/08/31 02:20:30;;;;;;;7.40;3.93;;;16.40;99.90;;;;;;4983081;28;20204;-72
2023/08/31 02:22:56;;;;;;;5.47;3.70;;;16.50;99.90;;;;;;4977807;28;20568;-72
2023/08/31 02:25:22;;;;;;;7.43;3.63;;;16.40;99.90;;;;;;4983524;28;20200;-71
2023/08/31 02:27:47;;;;;;;6.60;4.20;;;16.40;99.90;;;;;;4977423;28;20228;-71
2023/08/31 02:30:13;;;;;;;5.27;3.80;;;16.40;99.90;;;;;;4976436;28;20196;-71
2023/08/31 02:32:38;;;;;;;6.17;4.10;;;16.30;99.90;;;;;;4982935;28;20656;-71
2023/08/31 02:35:04;;;;;;;4.90;3.87;;;16.40;99.90;;;;;;4985299;28;20197;-72
2023/08/31 02:37:30;;;;;;;8.70;4.30;;;16.40;99.90;;;;;;4978517;28;20244;-72
2023/08/31 02:39:56;;;;;;;5.20;4.20;;;16.40;99.90;;;;;;4977439;28;20478;-72
2023/08/31 02:42:21;;;;;;;5.60;3.87;;;16.50;99.90;;;;;;4978825;28;20198;-72
2023/08/31 02:44:51;;;;;;;5.30;4.20;;;16.40;99.90;;;;;;4973832;28;20202;-72
2023/08/31 02:47:16;;;;;;;6.10;4.40;;;16.30;99.90;;;;;;4981003;28;20578;-72
2023/08/31 02:49:42;;;;;;;5.77;4.13;;;16.30;99.90;;;;;;4980073;28;20448;-72
2023/08/31 02:52:08;;;;;;;6.77;4.10;;;16.40;99.90;;;;;;4981957;28;20666;-72
2023/08/31 02:54:33;;;;;;;5.70;3.93;;;16.40;99.90;;;;;;4978669;28;20183;-72
2023/08/31 02:57:00;;;;;;;8.30;4.57;;;16.40;99.90;;;;;;4989065;28;20185;-72
2023/08/31 02:59:25;;;;;;;4.90;4.10;;;16.40;99.90;;;;;;4982963;28;20281;-72
2023/08/31 03:01:51;;;;;;;4.30;3.33;;;16.40;99.90;;;;;;4978144;28;20536;-72
2023/08/31 03:04:17;;;;;;;5.57;4.20;;;16.40;99.90;;;;;;4981238;28;20612;-72
2023/08/31 03:06:43;;;;;;;7.43;3.70;;;16.50;99.90;;;;;;4985333;28;20205;-72
2023/08/31 03:09:09;;;;;;;6.77;3.50;;;16.50;99.90;;;;;;4984398;28;20469;-72
2023/08/31 03:11:35;;;;;;;5.70;3.53;;;16.50;99.90;;;;;;4985640;28;20175;-72
2023/08/31 03:14:00;;;;;;;6.37;5.10;;;16.50;99.90;;;;;;4985494;28;20408;-72
2023/08/31 03:16:26;;;;;;;4.43;3.67;;;16.40;99.90;;;;;;4980230;28;20265;-72
2023/08/31 03:18:52;;;;;;;5.00;4.20;;;16.40;99.90;;;;;;4982777;28;20800;-72
2023/08/31 03:21:17;;;;;;;5.37;3.60;;;16.30;99.90;;;;;;4981603;28;20437;-72
2023/08/31 03:23:43;;;;;;;4.87;3.30;;;16.50;99.90;;;;;;4975726;28;20242;-72
2023/08/31 03:26:09;;;;;;;7.73;4.70;;;16.50;99.90;;;;;;4982030;28;20264;-72
2023/08/31 03:28:35;;;;;;;4.40;3.77;;;16.40;99.90;;;;;;4982566;28;20212;-72
2023/08/31 03:31:01;;;;;;;6.00;3.77;;;16.30;99.90;;;;;;4983862;28;20436;-72
2023/08/31 03:33:28;;;;;;;6.07;3.80;;;16.30;99.90;;;;;;4987151;28;20905;-72
2023/08/31 03:35:54;;;;;;;5.57;4.00;;;16.30;99.90;;;;;;4979736;28;20192;-72
2023/08/31 03:38:20;;;;;;;10.90;3.90;;;16.40;99.90;;;;;;4982403;28;20452;-72
2023/08/31 03:40:55;;;;;;;7.90;4.10;;;16.50;99.90;;;;;;4979935;28;20313;-72
2023/08/31 03:43:21;;;;;;;3.97;3.20;;;16.50;99.90;;;;;;4984309;28;20680;-72
2023/08/31 03:45:46;;;;;;;7.67;4.23;;;16.40;99.90;;;;;;4984072;28;20451;-72
2023/08/31 03:48:12;;;;;;;6.50;3.77;;;16.40;99.90;;;;;;4986032;28;20494;-72
2023/08/31 03:50:37;;;;;;;7.20;4.63;;;16.40;99.90;;;;;;4990407;28;20278;-72
2023/08/31 03:53:03;;;;;;;3.93;3.50;;;16.40;99.90;;;;;;4984058;28;20186;-72
2023/08/31 03:55:29;;;;;;;5.13;3.60;;;16.40;99.90;;;;;;4981314;28;20197;-72
2023/08/31 03:57:54;;;;;;;4.80;3.50;;;16.40;99.90;;;;;;4973747;28;21228;-72
2023/08/31 04:00:20;;;;;;;7.00;3.73;;;16.40;99.90;;;;;;4977667;28;20509;-72
2023/08/31 04:02:46;;;;;;;9.40;4.20;;;16.40;99.90;;;;;;4979401;28;20679;-72
2023/08/31 04:05:13;;;;;;;4.90;4.03;;;16.40;99.90;;;;;;4982078;28;20397;-71
2023/08/31 04:07:39;;;;;;;6.33;3.77;;;16.40;99.90;;;;;;4980044;28;20209;-72
2023/08/31 04:10:05;;;;;;;5.87;3.63;;;16.30;99.90;;;;;;4982607;28;20444;-72
2023/08/31 04:12:31;;;;;;;5.10;3.67;;;16.40;99.90;;;;;;4981721;28;20190;-71
2023/08/31 04:14:56;;;;;;;4.80;3.73;;;16.30;99.90;;;;;;4978853;28;20444;-71
2023/08/31 04:17:22;;;;;;;5.23;4.10;;;16.30;99.90;;;;;;4983507;28;20256;-71
2023/08/31 04:19:47;;;;;;;6.77;4.40;;;16.20;99.90;;;;;;4986600;28;20206;-71
2023/08/31 04:22:30;;;;;;;5.70;3.70;;;16.20;99.90;;;;;;4985638;28;20538;-72
2023/08/31 04:24:56;;;;;;;5.63;3.90;;;16.20;99.90;;;;;;4981293;28;20656;-72
2023/08/31 04:27:22;;;;;;;6.37;4.30;;;16.20;99.90;;;;;;4984413;28;20468;-72
2023/08/31 04:29:48;;;;;;;7.43;3.97;;;16.30;99.90;;;;;;4979164;28;20194;-72
2023/08/31 04:32:13;;;;;;;7.20;4.20;;;16.30;99.90;;;;;;4982763;28;20268;-72
2023/08/31 04:34:39;;;;;;;4.60;3.30;;;16.40;99.90;;;;;;4980355;28;20592;-72
2023/08/31 04:37:04;;;;;;;6.80;4.03;;;16.40;99.90;;;;;;4974491;28;20217;-72
2023/08/31 04:39:30;;;;;;;4.83;3.70;;;16.50;99.90;;;;;;4981537;28;20240;-72
2023/08/31 04:41:55;;;;;;;4.40;3.10;;;16.40;99.90;;;;;;4981079;28;20244;-72
2023/08/31 04:44:22;;;;;;;7.33;3.97;;;16.50;99.90;;;;;;4980331;28;20178;-72
2023/08/31 04:46:47;;;;;;;5.40;3.70;;;16.40;99.90;;;;;;4986070;28;20753;-72
2023/08/31 04:49:13;;;;;;;6.20;3.97;;;16.50;99.90;;;;;;4982803;28;20552;-70
2023/08/31 04:51:41;;;;;;;5.93;3.73;;;16.40;99.90;;;;;;4982176;28;20219;-72
2023/08/31 04:54:07;;;;;;;6.00;3.57;;;16.50;99.90;;;;;;4977125;28;20938;-72
2023/08/31 04:56:33;;;;;;;7.17;4.00;;;16.40;99.90;;;;;;4985983;28;20441;-72
2023/08/31 04:58:59;;;;;;;4.63;3.80;;;16.40;99.90;;;;;;4989546;28;20205;-72
2023/08/31 05:01:25;;;;;;;5.17;3.70;;;16.40;99.90;;;;;;4981694;28;20433;-72
2023/08/31 05:03:51;;;;;;;5.47;3.70;;;16.50;99.90;;;;;;4985922;28;20814;-72
2023/08/31 05:06:16;;;;;;;6.90;3.93;;;16.50;99.90;;;;;;4986477;28;20288;-72
2023/08/31 05:08:42;;;;;;;5.73;4.17;;;16.50;99.90;;;;;;4980731;28;20198;-72
2023/08/31 05:11:08;;;;;;;5.43;3.90;;;16.40;99.90;;;;;;4981948;28;20580;-72
2023/08/31 05:13:34;;;;;;;5.93;3.73;;;16.40;99.90;;;;;;4982438;28;20184;-72
2023/08/31 05:16:00;;;;;;;6.07;4.13;;;16.40;99.90;;;;;;4983672;28;20264;-72
2023/08/31 05:18:25;;;;;;;6.20;4.00;;;16.50;99.90;;;;;;4986466;28;20551;-72
2023/08/31 05:20:51;;;;;;;8.57;3.70;;;16.50;99.90;;;;;;4983898;28;20181;-72
2023/08/31 05:23:16;;;;;;;5.77;3.77;;;16.60;99.90;;;;;;4980040;28;20204;-72
2023/08/31 05:25:45;;;;;;;5.43;3.47;;;16.60;99.90;;;;;;4979554;28;20187;-73
2023/08/31 05:28:11;;;;;;;7.80;3.97;;;16.60;99.90;;;;;;4982933;28;20654;-72
2023/08/31 05:30:37;;;;;;;6.00;3.67;;;16.60;99.90;;;;;;4978316;28;20440;-72
2023/08/31 05:33:06;;;;;;;5.33;3.97;;;16.60;99.90;;;;;;4978949;28;20221;-72
2023/08/31 05:35:31;;;;;;;5.83;3.83;;;16.60;99.90;;;;;;4981953;28;20190;-72
2023/08/31 05:37:57;;;;;;;6.67;4.13;;;16.50;99.90;;;;;;4980021;28;21291;-72
2023/08/31 05:40:22;;;;;;;7.10;3.70;;;16.50;99.90;;;;;;4977850;28;20202;-71
2023/08/31 05:42:48;;;;;;;7.73;3.70;;;16.60;99.90;;;;;;4980791;28;20190;-71
2023/08/31 05:45:15;;;;;;;6.53;3.67;;;16.70;99.90;;;;;;4971673;28;20194;-71
2023/08/31 05:47:41;;;;;;;5.53;3.50;;;16.70;99.90;;;;;;4983054;28;20214;-72
2023/08/31 05:50:07;;;;;;;9.23;4.00;;;16.70;99.90;;;;;;4974379;28;20445;-72
2023/08/31 05:52:32;;;;;;;6.50;3.60;;;16.70;99.90;;;;;;4983507;28;20460;-72
2023/08/31 05:54:58;;;;;;;6.17;3.63;;;16.80;99.90;;;;;;4979858;28;22307;-72
2023/08/31 05:57:25;;;;;;;6.70;3.97;;;16.70;99.90;;;;;;4978811;28;20198;-72
2023/08/31 05:59:51;;;;;;;6.47;3.07;;;16.80;99.90;;;;;;4976216;28;20536;-72
2023/08/31 06:02:16;;;;;;;4.80;3.50;;;16.80;99.90;;;;;;4977776;28;20471;-72
2023/08/31 06:04:42;;;;;;;6.10;3.90;;;16.80;99.90;;;;;;4980477;28;21247;-72
2023/08/31 06:07:07;;;;;;;5.93;3.80;;;16.80;99.90;;;;;;4982902;28;20288;-72
2023/08/31 06:09:33;;;;;;;6.27;3.50;;;16.80;99.90;;;;;;4980507;28;20313;-71
2023/08/31 06:11:58;;;;;;;7.20;3.77;;;16.80;99.90;;;;;;4976361;28;20229;-71
2023/08/31 06:14:24;;;;;;;5.23;3.70;;;16.90;99.90;;;;;;4973061;28;20191;-71
2023/08/31 06:16:49;;;;;;;8.60;4.03;;;16.90;99.90;;;;;;4979166;28;20185;-70
2023/08/31 06:19:15;;;;;;;4.70;3.50;;;17.00;99.90;;;;;;4981684;28;20672;-69
2023/08/31 06:21:41;;;;;;;4.60;3.50;;;17.00;99.90;;;;;;4978644;28;20545;-70
2023/08/31 06:24:09;;;;;;;5.03;3.20;;;17.00;99.90;;;;;;4977273;28;20571;-70
2023/08/31 06:26:35;;;;;;;4.13;2.57;;;16.90;99.90;;;;;;4974060;28;20263;-71
2023/08/31 06:29:03;;;;;;;6.00;3.70;;;17.10;99.90;;;;;;4976910;28;21084;-70
2023/08/31 06:31:29;;;;;;;6.67;2.90;;;16.90;99.90;;;;;;4978213;28;20313;-70
2023/08/31 06:33:54;;;;;;;7.13;2.87;;;16.80;99.90;;;;;;4978718;28;20491;-70
2023/08/31 06:36:20;;;;;;;5.97;3.40;;;16.90;99.90;;;;;;4978705;28;20198;-70
2023/08/31 06:38:46;;;;;;;6.80;3.33;;;16.90;99.90;;;;;;4978271;28;20303;-70
2023/08/31 06:41:11;;;;;;;5.63;3.23;;;16.90;99.90;;;;;;4975453;28;20297;-71
2023/08/31 06:43:37;;;;;;;10.23;3.97;;;16.90;99.90;;;;;;4982042;28;20217;-70
2023/08/31 06:46:03;;;;;;;7.73;3.27;;;17.00;99.90;;;;;;4981822;28;20209;-70
2023/08/31 06:48:28;;;;;;;4.50;3.00;;;16.90;99.90;;;;;;4984183;28;20214;-71
2023/08/31 06:50:55;;;;;;;7.30;3.13;;;16.80;99.90;;;;;;4982139;28;20185;-71
2023/08/31 06:53:21;;;;;;;5.70;3.37;;;16.90;99.90;;;;;;4986695;28;20687;-72
2023/08/31 06:55:47;;;;;;;4.93;3.70;;;16.90;99.90;;;;;;4985098;28;20437;-71
2023/08/31 06:58:12;;;;;;;6.83;3.37;;;16.90;99.90;;;;;;4991929;28;20232;-71
2023/08/31 07:00:38;;;;;;;8.80;3.30;;;16.90;99.90;;;;;;4983931;28;20644;-68
2023/08/31 07:03:05;;;;;;;12.40;4.10;;;17.00;99.90;;;;;;4989693;28;20220;-68
2023/08/31 07:05:35;;;;;;;4.67;3.30;;;17.00;99.90;;;;;;4987364;28;20181;-68
2023/08/31 07:08:01;;;;;;;4.73;3.10;;;17.00;99.90;;;;;;4992217;28;20476;-68
2023/08/31 07:10:27;;;;;;;6.57;3.60;;;17.00;99.90;;;;;;4983974;28;20442;-68
2023/08/31 07:12:53;;;;;;;11.23;3.47;;;17.00;99.90;;;;;;4980333;28;20494;-69
2023/08/31 07:15:19;;;;;;;8.63;3.93;;;17.00;99.90;;;;;;4977971;28;20434;-70
2023/08/31 07:17:44;;;;;;;7.30;4.53;;;17.00;99.90;;;;;;4979816;28;20213;-70
2023/08/31 07:20:12;;;;;;;4.27;3.63;;;16.90;99.90;;;;;;4987858;28;20654;-71
2023/08/31 07:22:37;;;;;;;5.07;3.47;;;17.00;99.90;;;;;;4989004;28;20247;-71
2023/08/31 07:25:04;;;;;;;5.20;3.53;;;17.10;99.90;;;;;;4985624;28;20548;-71
2023/08/31 07:27:29;;;;;;;7.63;4.20;;;17.20;99.90;;;;;;4992920;28;21998;-71
2023/08/31 07:29:55;;;;;;;5.77;2.80;;;17.10;99.90;;;;;;4988382;28;20577;-71
2023/08/31 07:32:22;;;;;;;4.43;3.10;;;17.10;99.90;;;;;;4986547;28;20503;-71
2023/08/31 07:34:47;;;;;;;6.47;3.53;;;17.00;99.90;;;;;;4991443;28;20556;-70
2023/08/31 07:37:13;;;;;;;8.90;3.43;;;17.00;99.90;;;;;;4985602;28;20478;-69
2023/08/31 07:39:39;;;;;;;7.37;2.63;;;17.00;99.90;;;;;;4982567;28;20632;-70
2023/08/31 07:42:05;;;;;;;9.27;3.10;;;17.00;99.90;;;;;;4984984;28;20181;-71
2023/08/31 07:44:31;;;;;;;9.40;3.00;;;17.10;99.90;;;;;;4979686;28;21182;-70
2023/08/31 07:46:56;;;;;;;4.10;2.80;;;17.10;99.90;;;;;;4987678;28;20848;-71
2023/08/31 07:49:22;;;;;;;6.30;2.90;;;17.20;99.90;;;;;;4985475;28;20279;-69
2023/08/31 07:51:48;;;;;;;7.10;2.93;;;17.20;99.90;;;;;;4984031;28;20221;-69
2023/08/31 07:54:21;;;;;;;4.20;2.70;;;17.30;99.90;;;;;;4987121;28;20745;-70
2023/08/31 07:56:46;;;;;;;6.17;3.30;;;17.40;99.90;;;;;;4986420;28;20194;-71
2023/08/31 07:59:12;;;;;;;3.40;2.77;;;17.40;99.90;;;;;;4978573;28;20472;-71
2023/08/31 08:01:37;;;;;;;7.30;3.43;;;17.60;99.90;;;;;;4980338;28;20193;-71
2023/08/31 08:04:03;;;;;;;3.70;3.00;;;17.70;99.90;;;;;;4978286;28;20515;-71
2023/08/31 08:06:28;;;;;;;5.00;3.20;;;17.60;99.90;;;;;;4981063;28;20217;-70
2023/08/31 08:08:54;;;;;;;9.83;5.50;;;17.60;99.90;;;;;;4987370;28;20209;-71
2023/08/31 08:11:21;;;;;;;7.83;2.90;;;17.60;99.90;;;;;;4975242;28;20197;-71
2023/08/31 08:13:47;;;;;;;8.03;3.97;;;17.70;99.90;;;;;;4985974;28;20193;-71
2023/08/31 08:16:14;;;;;;;5.17;2.83;;;17.70;99.90;;;;;;4982071;28;20449;-70
2023/08/31 08:18:40;;;;;;;6.40;3.10;;;17.80;99.90;;;;;;4974826;28;20208;-70
2023/08/31 08:21:06;;;;;;;4.93;2.83;;;17.80;99.90;;;;;;4978858;28;20450;-69
2023/08/31 08:23:32;;;;;;;4.00;2.33;;;17.80;99.90;;;;;;4976300;28;20938;-68
2023/08/31 08:26:00;;;;;;;4.83;3.27;;;17.90;99.90;;;;;;4980601;28;20449;-68
2023/08/31 08:28:26;;;;;;;4.67;2.63;;;18.00;99.90;;;;;;4984430;28;20209;-69
2023/08/31 08:30:51;;;;;;;6.03;2.60;;;18.00;99.90;;;;;;4981810;28;20437;-69
2023/08/31 08:33:17;;;;;;;3.93;2.30;;;18.10;99.90;;;;;;4979659;28;20443;-70
2023/08/31 08:35:42;;;;;;;5.83;3.00;;;18.20;99.90;;;;;;4984643;28;20186;-68
2023/08/31 08:38:08;;;;;;;4.83;2.13;;;18.20;99.90;;;;;;4982184;28;20214;-67
2023/08/31 08:40:35;;;;;;;4.77;2.70;;;18.20;99.90;;;;;;4984017;28;20715;-68
2023/08/31 08:43:01;;;;;;;4.70;2.43;;;18.20;99.90;;;;;;4981542;28;20212;-68
2023/08/31 08:45:36;;;;;;;5.30;2.70;;;18.30;99.90;;;;;;4983678;28;20448;-67
2023/08/31 08:48:04;;;;;;;3.80;2.77;;;18.30;99.90;;;;;;4980544;28;20480;-70
2023/08/31 08:50:33;;;;;;;4.40;2.67;;;18.40;99.90;;;;;;4983261;28;21075;-71
2023/08/31 08:53:00;;;;;;;6.20;3.10;;;18.30;99.90;;;;;;4978372;28;20453;-73
2023/08/31 08:55:25;;;;;;;5.27;2.93;;;18.40;99.90;;;;;;4969154;28;20846;-73
2023/08/31 08:57:51;;;;;;;3.93;2.53;;;18.40;99.90;;;;;;4964856;28;20468;-71
2023/08/31 09:00:17;;;;;;;4.63;3.10;;;18.40;99.90;;;;;;4972591;28;20210;-71
2023/08/31 09:02:42;;;;;;;4.27;2.83;;;18.50;99.90;;;;;;4978733;28;20193;-71
2023/08/31 09:05:08;;;;;;;6.20;2.80;;;18.60;99.90;;;;;;4978099;28;20201;-71
2023/08/31 09:08:10;;;;;;;5.30;2.83;;;18.60;99.90;;;;;;4975390;28;20241;-70
2023/08/31 09:10:37;;;;;;;5.63;2.90;;;18.70;99.90;;;;;;4980533;28;20508;-70
2023/08/31 09:13:15;;;;;;;5.80;2.90;;;18.80;99.90;;;;;;4978202;28;20429;-70
2023/08/31 09:15:47;;;;;;;7.03;3.53;;;18.80;99.90;;;;;;4985293;28;20527;-70
2023/08/31 09:18:16;;;;;;;5.33;2.93;;;18.90;99.90;;;;;;4985971;28;20468;-70
2023/08/31 09:20:44;;;;;;;6.43;3.50;;;18.90;99.90;;;;;;4978996;28;20468;-69
2023/08/31 09:23:10;;;;;;;7.50;3.00;;;18.80;99.90;;;;;;4981248;28;20444;-70
2023/08/31 09:25:53;;;;;;;7.00;3.07;;;18.90;99.90;;;;;;4981009;28;20535;-70
2023/08/31 09:28:26;;;;;;;6.30;3.27;;;18.90;99.90;;;;;;4974128;28;20293;-69
2023/08/31 09:30:53;;;;;;;5.50;2.90;;;19.00;99.90;;;;;;4978821;28;20436;-71
2023/08/31 09:33:20;;;;;;;7.30;3.83;;;19.00;99.90;;;;;;4982002;28;20802;-70
2023/08/31 09:35:56;;;;;;;4.03;2.30;;;19.00;99.90;;;;;;4981402;28;20435;-69
2023/08/31 09:38:22;;;;;;;5.73;3.10;;;19.10;99.90;;;;;;4977468;28;20543;-69
2023/08/31 09:40:47;;;;;;;5.93;3.37;;;19.10;99.90;;;;;;4972744;28;21034;-70
2023/08/31 09:43:25;;;;;;;4.23;2.87;;;19.10;99.90;;;;;;4970477;28;20517;-70
2023/08/31 09:45:52;;;;;;;5.73;2.97;;;19.10;99.90;;;;;;4977628;28;20186;-70
2023/08/31 09:48:19;;;;;;;5.20;2.93;;;19.10;99.90;;;;;;4980916;28;20841;-70
2023/08/31 09:50:45;;;;;;;5.90;3.90;;;19.20;99.90;;;;;;4978726;28;20446;-70
2023/08/31 09:53:12;;;;;;;4.80;3.43;;;19.20;99.90;;;;;;4974867;28;20536;-70
2023/08/31 09:55:39;;;;;;;3.83;2.47;;;19.30;99.90;;;;;;4973586;28;20962;-71
2023/08/31 09:58:08;;;;;;;4.57;2.67;;;19.30;99.90;;;;;;4966788;28;20459;-69
2023/08/31 10:00:36;;;;;;;7.80;2.73;;;19.20;99.90;;;;;;4963639;28;20475;-69
2023/08/31 10:03:04;;;;;;;7.03;2.70;;;19.30;99.90;;;;;;4969515;28;20524;-69
2023/08/31 10:05:30;;;;;;;10.47;3.10;;;19.30;99.90;;;;;;4976315;28;21170;-72
2023/08/31 10:07:57;;;;;;;7.17;4.17;;;19.50;99.90;;;;;;4977908;28;20480;-72
2023/08/31 10:10:24;;;;;;;6.40;3.80;;;19.50;99.90;;;;;;4974596;28;20445;-71
2023/08/31 10:12:51;;;;;;;8.83;3.53;;;19.50;99.90;;;;;;4976733;28;20491;-72
2023/08/31 10:15:17;;;;;;;5.17;3.73;;;19.70;99.90;;;;;;4977982;28;20440;-70
2023/08/31 10:17:44;;;;;;;9.13;3.30;;;19.80;99.90;;;;;;4979776;28;21061;-70
2023/08/31 10:20:11;;;;;;;6.03;3.60;;;19.90;99.90;;;;;;4980803;28;20511;-70
2023/08/31 10:22:37;;;;;;;6.40;3.23;;;19.70;99.90;;;;;;4984786;28;20429;-70
2023/08/31 10:25:06;;;;;;;5.43;2.90;;;19.50;99.90;;;;;;4981056;28;20460;-70
2023/08/31 10:27:45;;;;;;;5.70;3.10;;;19.60;99.90;;;;;;4986906;28;20519;-70
2023/08/31 10:30:26;;;;;;;7.30;2.80;;;19.70;99.90;;;;;;4981228;28;20526;-70
2023/08/31 10:33:09;;;;;;;6.10;3.00;;;19.80;99.90;;;;;;4977311;28;20422;-70
2023/08/31 10:35:47;;;;;;;5.07;2.80;;;19.80;99.90;;;;;;4982654;28;20775;-71
2023/08/31 10:38:22;;;;;;;4.40;3.23;;;19.80;99.90;;;;;;4982051;28;20985;-71
2023/08/31 10:41:18;;;;;;;5.40;2.77;;;19.70;99.90;;;;;;4980748;28;20451;-71
2023/08/31 10:43:47;;;;;;;5.70;3.30;;;19.70;99.90;;;;;;4980615;28;20433;-71
2023/08/31 10:46:27;;;;;;;5.83;3.10;;;19.60;99.90;;;;;;4985129;28;20464;-71
2023/08/31 10:48:56;;;;;;;6.40;3.23;;;19.50;99.90;;;;;;4996228;28;20464;-71
2023/08/31 10:51:30;;;;;;;5.77;3.17;;;19.60;99.90;;;;;;4982505;28;20440;-72
2023/08/31 10:54:24;;;;;;;7.00;3.23;;;19.60;99.90;;;;;;4986232;28;20458;-73
2023/08/31 10:56:57;;;;;;;5.77;3.00;;;19.70;99.90;;;;;;4983049;28;20837;-70
2023/08/31 10:59:24;;;;;;;7.33;3.10;;;19.80;99.90;;;;;;4977347;28;20468;-70
2023/08/31 11:02:01;;;;;;;5.40;3.30;;;19.80;99.90;;;;;;4985192;28;21034;-71
2023/08/31 11:04:28;;;;;;;5.53;3.10;;;19.90;99.90;;;;;;4992966;28;20430;-71
2023/08/31 11:07:14;;;;;;;5.30;3.87;;;20.00;99.90;;;;;;4980659;28;21209;-70
2023/08/31 11:09:40;;;;;;;8.00;3.80;;;20.00;99.90;;;;;;4978739;28;20436;-70
2023/08/31 11:12:07;;;;;;;5.80;3.50;;;20.00;99.90;;;;;;4983605;28;21043;-70
2023/08/31 11:14:32;;;;;;;8.73;4.50;;;20.10;99.90;;;;;;4983409;28;20502;-70
2023/08/31 11:17:00;;;;;;;5.00;3.80;;;20.10;99.90;;;;;;4980233;28;20448;-70
2023/08/31 11:19:26;;;;;;;5.00;3.13;;;20.10;99.90;;;;;;4980890;28;20208;-70
2023/08/31 11:21:52;;;;;;;5.23;3.27;;;20.30;99.90;;;;;;4976894;28;20500;-70
2023/08/31 11:24:18;;;;;;;5.67;3.00;;;20.30;99.90;;;;;;4978363;28;20441;-70
2023/08/31 11:26:43;;;;;;;6.67;3.23;;;20.30;99.90;;;;;;4974729;28;20507;-70
2023/08/31 11:29:09;;;;;;;5.70;3.30;;;20.30;99.90;;;;;;4980738;28;20492;-71
2023/08/31 11:31:41;;;;;;;10.80;3.23;;;20.40;99.90;;;;;;4987497;28;20212;-71
2023/08/31 11:34:17;;;;;;;5.87;3.40;;;20.50;99.90;;;;;;4985141;28;20707;-71
2023/08/31 11:36:44;;;;;;;5.40;3.57;;;20.60;99.90;;;;;;4981725;28;20436;-71
2023/08/31 11:39:10;;;;;;;7.20;2.90;;;20.60;99.90;;;;;;4981554;28;20564;-71
2023/08/31 11:41:40;;;;;;;4.37;2.73;;;20.70;99.90;;;;;;4981559;28;20503;-71
2023/08/31 11:44:11;;;;;;;5.00;3.50;;;20.80;99.90;;;;;;4979244;28;20603;-70
2023/08/31 11:46:38;;;;;;;8.60;3.47;;;20.90;99.90;;;;;;4984084;28;20459;-71
2023/08/31 11:49:04;;;;;;;7.10;3.00;;;20.90;99.90;;;;;;4983258;28;20460;-70
2023/08/31 11:51:32;;;;;;;7.40;3.90;;;21.00;99.90;;;;;;4985894;28;20436;-70
2023/08/31 11:53:59;;;;;;;6.83;4.03;;;21.10;99.90;;;;;;4993052;28;20404;-72
2023/08/31 11:56:25;;;;;;;5.57;3.17;;;21.20;99.90;;;;;;4985056;28;20443;-71
2023/08/31 11:58:51;;;;;;;9.17;4.77;;;21.40;99.90;;;;;;4986878;28;20807;-70
2023/08/31 12:01:23;;;;;;;3.77;2.90;;;21.50;99.90;;;;;;4993131;28;20185;-70
2023/08/31 12:03:49;;;;;;;5.07;3.10;;;21.70;99.90;;;;;;4986900;28;20808;-70
2023/08/31 12:06:17;;;;;;;3.70;3.00;;;21.90;99.90;;;;;;4989046;28;20436;-71
2023/08/31 12:08:42;;;;;;;7.77;3.30;;;22.00;99.90;;;;;;4984360;28;20469;-71
2023/08/31 12:11:08;;;;;;;4.90;2.90;;;22.20;99.90;;;;;;4980703;28;20444;-70
2023/08/31 12:13:34;;;;;;;4.93;2.73;;;22.20;99.90;;;;;;4979870;28;20187;-70
2023/08/31 12:16:01;;;;;;;5.70;3.53;;;22.00;99.90;;;;;;4981750;28;20189;-70
2023/08/31 12:18:31;;;;;;;10.10;3.67;;;21.90;99.90;;;;;;4982396;28;20193;-70
2023/08/31 12:20:57;;;;;;;6.00;3.10;;;21.70;99.90;;;;;;4982567;28;20857;-70
2023/08/31 12:23:23;;;;;;;5.97;3.50;;;21.60;99.90;;;;;;4975894;28;20539;-70
2023/08/31 12:25:51;;;;;;;7.73;3.50;;;21.70;99.90;;;;;;4989872;28;20910;-70
2023/08/31 12:28:21;;;;;;;5.67;3.17;;;21.60;99.90;;;;;;4980654;28;20217;-70
2023/08/31 12:30:52;;;;;;;5.10;3.20;;;21.70;99.90;;;;;;4979371;28;20484;-70
2023/08/31 12:33:18;;;;;;;5.80;3.10;;;21.70;99.90;;;;;;4989924;28;20416;-70
2023/08/31 12:35:44;;;;;;;7.30;3.33;;;22.10;99.90;;;;;;4985562;28;20516;-70
2023/08/31 12:38:09;;;;;;;4.70;3.40;;;22.20;99.90;;;;;;4982383;28;20830;-70
2023/08/31 12:40:36;;;;;;;7.43;3.10;;;22.20;99.90;;;;;;4986837;28;20285;-71
2023/08/31 12:43:02;;;;;;;5.87;3.43;;;22.10;99.90;;;;;;4987805;28;20211;-72
2023/08/31 12:45:27;;;;;;;5.83;3.20;;;22.00;99.90;;;;;;4983045;28;20497;-71
2023/08/31 12:47:53;;;;;;;5.37;3.07;;;22.10;99.90;;;;;;4985151;28;20472;-70